createdAt,value
2022-08-05T00:03:09.434Z,83.97
2022-08-05T00:08:35.083Z,83.67
2022-08-05T00:13:40.164Z,84.53
2022-08-05T00:18:48.293Z,85.05
2022-08-05T00:23:53.403Z,85.64
2022-08-05T00:28:56.810Z,86.41
2022-08-05T00:34:54.548Z,86.51
2022-08-05T00:39:24.829Z,86.82
2022-08-05T00:44:30.442Z,86.96
2022-08-05T00:49:51.167Z,87.26
2022-08-05T00:54:56.584Z,86.79
2022-08-05T00:59:59.558Z,86.40
2022-08-05T01:05:02.619Z,87.06
2022-08-05T01:10:15.024Z,86.52
2022-08-05T01:15:36.481Z,86.66
2022-08-05T01:20:47.116Z,87.12
2022-08-05T01:26:01.544Z,86.72
2022-08-05T01:31:10.444Z,86.73
2022-08-05T01:36:16.417Z,86.99
2022-08-05T01:41:22.445Z,87.80
2022-08-05T01:46:42.191Z,88.44
2022-08-05T01:51:51.766Z,88.23
2022-08-05T01:58:10.638Z,89.13
2022-08-05T02:02:28.405Z,89.62
2022-08-05T02:07:32.360Z,89.81
2022-08-05T02:12:39.653Z,90.65
2022-08-05T02:18:30.646Z,89.49
2022-08-05T02:23:12.858Z,90.48
2022-08-05T02:28:28.625Z,90.47
2022-08-05T02:33:38.896Z,91.51
2022-08-05T02:38:43.712Z,91.40
2022-08-05T02:44:05.880Z,92.42
2022-08-05T02:49:12.135Z,92.63
2022-08-05T02:54:35.828Z,92.57
2022-08-05T02:59:50.105Z,93.19
2022-08-05T03:04:55.675Z,93.09
2022-08-05T03:09:58.877Z,93.77
2022-08-05T03:15:01.818Z,93.47
2022-08-05T03:20:07.304Z,93.55
2022-08-05T03:25:32.462Z,94.31
2022-08-05T03:30:38.157Z,95.68
2022-08-05T03:35:42.665Z,96.57
2022-08-05T03:40:47.380Z,96.30
2022-08-05T03:45:58.083Z,96.71
2022-08-05T03:52:36.836Z,96.61
2022-08-05T03:56:35.715Z,97.75
2022-08-05T04:01:41.295Z,97.49
2022-08-05T04:06:51.384Z,98.33
2022-08-05T04:11:56.431Z,98.46
2022-08-05T04:17:00.930Z,98.74
2022-08-05T04:22:11.722Z,99.90
2022-08-05T04:27:15.419Z,99.87
2022-08-05T04:32:20.137Z,99.68
2022-08-05T04:38:02.797Z,99.63
2022-08-05T04:42:58.846Z,100.00
2022-08-05T04:48:05.266Z,100.00
2022-08-05T04:53:10.388Z,100.00
2022-08-05T04:58:13.884Z,100.00
2022-08-05T05:03:24.598Z,100.00
2022-08-05T05:08:30.463Z,100.00
2022-08-05T05:13:43.267Z,99.84
2022-08-05T05:19:02.746Z,99.86
2022-08-05T05:24:10.864Z,99.99
2022-08-05T05:29:14.705Z,100.00
2022-08-05T05:34:22.515Z,100.00
2022-08-05T05:39:34.499Z,100.00
2022-08-05T05:44:44.430Z,100.00
2022-08-05T05:49:56.501Z,100.00
2022-08-05T05:55:01.823Z,100.00
2022-08-05T06:00:11.915Z,100.00
2022-08-05T06:05:16.742Z,100.00
2022-08-05T06:10:21.457Z,100.00
2022-08-05T06:16:30.645Z,100.00
2022-08-05T06:20:50.017Z,99.95
2022-08-05T06:26:12.355Z,99.53
2022-08-05T06:31:21.953Z,98.33
2022-08-05T06:36:25.992Z,96.94
2022-08-05T06:41:30.467Z,96.08
2022-08-05T06:46:37.758Z,95.48
2022-08-05T06:51:40.994Z,95.02
2022-08-05T06:56:54.677Z,94.71
2022-08-05T07:02:09.119Z,94.38
2022-08-05T07:07:12.088Z,94.61
2022-08-05T07:12:33.490Z,94.78
2022-08-05T07:18:02.424Z,94.06
2022-08-05T07:22:59.342Z,93.08
2022-08-05T07:28:08.201Z,92.81
2022-08-05T07:33:16.007Z,92.89
2022-08-05T07:38:33.041Z,93.07
2022-08-05T07:43:39.875Z,92.22
2022-08-05T07:49:01.499Z,91.98
2022-08-05T07:54:10.089Z,91.31
2022-08-05T07:59:14.740Z,91.16
2022-08-05T08:04:17.654Z,90.72
2022-08-05T08:09:37.458Z,90.32
2022-08-05T08:14:42.054Z,89.90
2022-08-05T08:20:43.944Z,90.28
2022-08-05T08:25:16.222Z,89.36
2022-08-05T08:30:32.206Z,89.00
2022-08-05T08:35:41.315Z,87.92
2022-08-05T08:40:51.680Z,85.76
2022-08-05T08:45:57.668Z,84.18
2022-08-05T08:51:23.224Z,83.15
2022-08-05T08:56:27.195Z,83.08
2022-08-05T09:01:32.719Z,81.79
2022-08-05T09:06:36.267Z,81.28
2022-08-05T09:11:53.064Z,80.32
2022-08-05T09:16:59.440Z,79.15
2022-08-05T09:22:22.912Z,77.65
2022-08-05T09:28:04.503Z,80.27
2022-08-05T09:33:02.120Z,79.32
2022-08-05T09:38:12.124Z,77.59
2022-08-05T09:43:28.011Z,76.87
2022-08-05T09:49:06.625Z,77.01
2022-08-05T09:54:10.136Z,75.05
2022-08-05T09:59:17.079Z,74.33
2022-08-05T10:04:29.188Z,73.28
2022-08-05T10:09:44.844Z,71.05
2022-08-05T10:14:48.558Z,71.40
2022-08-05T10:20:02.856Z,70.34
2022-08-05T10:25:08.353Z,70.19
2022-08-05T10:31:20.413Z,67.92
2022-08-05T10:35:40.650Z,66.81
2022-08-05T10:40:57.790Z,66.76
2022-08-05T10:46:06.212Z,65.41
2022-08-05T10:51:21.671Z,62.89
2022-08-05T10:56:26.550Z,62.82
2022-08-05T11:01:55.128Z,62.16
2022-08-05T11:07:12.074Z,62.36
2022-08-05T11:12:42.384Z,60.21
2022-08-05T11:17:59.346Z,58.50
2022-08-05T11:23:18.726Z,57.98
2022-08-05T11:28:43.172Z,56.75
2022-08-05T11:33:55.656Z,53.59
2022-08-05T11:39:01.821Z,53.43
2022-08-05T11:44:08.399Z,52.31
2022-08-05T11:49:14.773Z,51.44
2022-08-05T11:54:33.795Z,50.04
2022-08-05T11:59:41.375Z,51.62
2022-08-05T12:04:59.326Z,52.64
2022-08-05T12:10:09.334Z,50.72
2022-08-05T12:15:20.124Z,49.69
2022-08-05T12:20:42.500Z,49.36
2022-08-05T12:25:52.130Z,50.24
2022-08-05T12:30:57.288Z,50.11
2022-08-05T12:36:02.003Z,49.15
2022-08-05T12:41:12.935Z,46.78
2022-08-05T12:46:28.050Z,47.26
2022-08-05T12:52:12.830Z,48.13
2022-08-05T12:57:09.280Z,47.72
2022-08-05T13:02:13.989Z,47.27
2022-08-05T13:07:35.807Z,47.16
2022-08-05T13:12:51.146Z,48.09
2022-08-05T13:18:00.650Z,48.66
2022-08-05T13:23:07.398Z,49.52
2022-08-05T13:28:10.844Z,49.09
2022-08-05T13:33:14.337Z,48.08
2022-08-05T13:38:42.474Z,47.21
2022-08-05T13:43:55.068Z,48.25
2022-08-05T13:49:00.489Z,49.23
2022-08-05T13:54:11.599Z,50.09
2022-08-05T13:59:20.170Z,48.47
2022-08-05T14:04:41.818Z,48.44
2022-08-05T14:09:46.729Z,48.41
2022-08-05T14:14:49.858Z,48.15
2022-08-05T14:19:56.935Z,47.19
2022-08-05T14:25:06.319Z,47.76
2022-08-05T14:30:26.380Z,49.30
2022-08-05T14:35:36.889Z,49.28
2022-08-05T14:40:54.264Z,48.83
2022-08-05T14:45:57.265Z,48.19
2022-08-05T14:51:00.218Z,48.29
2022-08-05T14:56:07.971Z,49.23
2022-08-05T15:01:16.141Z,48.92
2022-08-05T15:06:19.862Z,48.57
2022-08-05T15:11:51.788Z,48.97
2022-08-05T15:16:55.562Z,48.99
2022-08-05T15:21:59.996Z,49.65
2022-08-05T15:27:04.971Z,50.31
2022-08-05T15:32:12.238Z,51.50
2022-08-05T15:37:19.344Z,51.64
2022-08-05T15:42:55.817Z,52.97
2022-08-05T15:47:57.677Z,53.71
2022-08-05T15:53:04.145Z,54.13
2022-08-05T15:58:16.860Z,53.54
2022-08-05T16:03:20.023Z,54.22
2022-08-05T16:08:23.989Z,54.54
2022-08-05T16:13:36.785Z,55.49
2022-08-05T16:18:52.255Z,56.46
2022-08-05T16:24:00.180Z,56.21
2022-08-05T16:29:07.362Z,55.87
2022-08-05T16:34:11.663Z,56.21
2022-08-05T16:39:15.265Z,56.99
2022-08-05T16:44:20.992Z,57.37
2022-08-05T16:49:29.097Z,57.31
2022-08-05T16:54:32.339Z,58.24
2022-08-05T17:00:04.326Z,58.89
2022-08-05T17:05:02.678Z,61.18
2022-08-05T17:10:06.017Z,61.46
2022-08-05T17:15:15.851Z,61.43
2022-08-05T17:20:22.783Z,62.21
2022-08-05T17:25:39.547Z,61.97
2022-08-05T17:30:50.821Z,62.96
2022-08-05T17:36:08.783Z,64.17
2022-08-05T17:42:16.833Z,66.15
2022-08-05T17:46:42.786Z,66.50
2022-08-05T17:51:46.184Z,66.94
2022-08-05T17:56:53.185Z,66.91
2022-08-05T18:01:57.527Z,67.36
2022-08-05T18:07:01.929Z,68.09
2022-08-05T18:12:05.650Z,69.35
2022-08-05T18:18:01.076Z,70.07
2022-08-05T18:22:46.036Z,70.64
2022-08-05T18:27:56.302Z,71.75
2022-08-05T18:33:01.536Z,73.06
2022-08-05T18:38:04.924Z,74.29
2022-08-05T18:43:09.160Z,74.78
2022-08-05T18:48:30.766Z,75.75
2022-08-05T18:53:34.824Z,76.14
2022-08-05T18:58:51.015Z,76.72
2022-08-05T19:03:59.215Z,76.80
2022-08-05T19:09:02.191Z,77.44
2022-08-05T19:14:37.518Z,77.57
2022-08-05T19:19:31.358Z,78.24
2022-08-05T19:24:35.147Z,81.41
2022-08-05T19:29:38.548Z,80.74
2022-08-05T19:34:55.242Z,80.70
2022-08-05T19:39:59.211Z,80.50
2022-08-05T19:45:02.364Z,80.02
2022-08-05T19:50:10.528Z,79.41
2022-08-05T19:56:14.086Z,79.29
2022-08-05T20:00:38.469Z,79.31
2022-08-05T20:05:43.160Z,79.60
2022-08-05T20:10:53.558Z,80.17
2022-08-05T20:15:57.715Z,80.94
2022-08-05T20:21:02.534Z,81.41
2022-08-05T20:26:08.070Z,81.64
2022-08-05T20:31:21.963Z,82.29
2022-08-05T20:36:32.864Z,82.70
2022-08-05T20:41:43.775Z,83.07
2022-08-05T20:46:48.139Z,83.47
2022-08-05T20:51:53.708Z,83.84
2022-08-05T20:56:57.352Z,84.46
2022-08-05T21:02:00.569Z,85.09
2022-08-05T21:07:04.948Z,84.90
2022-08-05T21:12:12.033Z,87.63
2022-08-05T21:17:19.897Z,86.85
2022-08-05T21:22:26.021Z,86.34
2022-08-05T21:27:29.247Z,86.41
2022-08-05T21:32:42.055Z,86.34
2022-08-05T21:37:53.162Z,87.09
2022-08-05T21:42:59.147Z,87.97
2022-08-05T21:48:06.611Z,89.36
2022-08-05T21:53:16.670Z,89.66
2022-08-05T21:58:22.274Z,89.92
2022-08-05T22:03:52.379Z,90.26
2022-08-05T22:08:57.825Z,91.31
2022-08-05T22:14:06.091Z,91.45
2022-08-05T22:20:01.266Z,91.81
2022-08-05T22:25:20.941Z,91.23
2022-08-05T22:30:35.398Z,91.97
2022-08-05T22:35:48.885Z,91.58
2022-08-05T22:40:54.958Z,92.54
2022-08-05T22:45:58.310Z,92.79
2022-08-05T22:51:01.524Z,93.13
2022-08-05T22:56:11.654Z,94.14
2022-08-05T23:01:16.821Z,94.48
2022-08-05T23:06:26.313Z,94.33
2022-08-05T23:11:30.879Z,94.77
2022-08-05T23:16:52.033Z,96.10
2022-08-05T23:21:55.129Z,96.47
2022-08-05T23:26:59.476Z,97.11
2022-08-05T23:32:03.641Z,98.38
2022-08-05T23:37:07.109Z,98.93
2022-08-05T23:42:15.623Z,99.55
2022-08-05T23:47:26.601Z,99.92
2022-08-05T23:52:36.065Z,100.00
2022-08-05T23:57:53.861Z,100.00
